Aviation Digital Data Service (ADDS)

Output produced by METARs form (1717 UTC 23 September 2020)
found at http://aviationweather.gov/metar/data/
 
KJAN 231654Z 07006KT 10SM -RA FEW031 BKN080 OVC120 22/20 A2994 RMK AO2 SLP134 P0005 T02170200
KJAN 231503Z 2315/2412 10008KT P6SM -SHRA SCT020 BKN025 OVC100 
     FM240100 10006KT 6SM BR VCSH OVC012 
     FM240700 12011KT 6SM BR VCSH OVC006